ENHE

Heidrun Airport

Norway
METAR ENHE 222120Z 10024KT 9999 BKN040 BKN075 06/04 Q1005 W///S4
Observed Flight Rules
Apr-22 @ 21:20 UTC (30 minutes ago) Visual Flight Rules
Wind Visibility Clouds
100° at 24 knots 10,000+ meters
  • Broken at 4,000' AGL
  • Broken at 7,500' AGL
Temperatures Readings
Current 6°C / 43°F
Dewpoint 4°C / 39°F
Humidity 87%
Altimeter 29.68" Hg
Pressure 1005 hPa
Elevation 1
METAR ENHE 222120Z 10024KT 9999 BKN040 BKN075 06/04 Q1005 W///S4
Observed Flight Rules
Apr-22 @ 21:20 UTC
(30 minutes ago)
VFR
Wind Visibility
100° at 24 knots 10,000+ meters
Clouds
  • Broken at 4,000' AGL
  • Broken at 7,500' AGL
Temperature Dewpoint
6°C / 43°F 4°C / 39°F
Humidity Altimeter Pressure
87% 29.68" Hg 1005 hPa